createdAt,value
2022-11-15T00:00:25.966Z,8.79
2022-11-15T00:02:48.676Z,6.59
2022-11-15T00:05:10.013Z,7.41
2022-11-15T00:07:54.156Z,8.80
2022-11-15T00:10:12.578Z,8.14
2022-11-15T00:12:33.740Z,8.76
2022-11-15T00:14:54.822Z,8.70
2022-11-15T00:17:16.063Z,8.68
2022-11-15T00:19:38.721Z,6.97
2022-11-15T00:21:59.739Z,8.44
2022-11-15T00:24:21.012Z,8.35
2022-11-15T00:26:42.216Z,8.77
2022-11-15T00:29:03.262Z,8.81
2022-11-15T00:31:24.393Z,8.81
2022-11-15T00:33:46.269Z,8.11
2022-11-15T00:36:11.688Z,4.89
2022-11-15T00:38:34.279Z,8.79
2022-11-15T00:40:55.508Z,8.75
2022-11-15T00:43:17.029Z,8.73
2022-11-15T00:45:38.288Z,8.35
2022-11-15T00:47:59.540Z,8.49
2022-11-15T00:50:21.221Z,7.95
2022-11-15T00:52:43.821Z,8.63
2022-11-15T00:55:05.484Z,8.58
2022-11-15T00:57:26.772Z,7.65
2022-11-15T00:59:47.945Z,7.02
2022-11-15T01:02:09.327Z,8.40
2022-11-15T01:04:30.769Z,8.32
2022-11-15T01:06:52.177Z,7.36
2022-11-15T01:09:15.538Z,8.24
2022-11-15T01:11:37.089Z,8.20
2022-11-15T01:13:58.178Z,8.24
2022-11-15T01:16:20.690Z,4.27
2022-11-15T01:18:41.938Z,8.25
2022-11-15T01:21:08.004Z,8.33
2022-11-15T01:23:29.779Z,8.34
2022-11-15T01:25:52.775Z,8.27
2022-11-15T01:28:14.023Z,8.36
2022-11-15T01:30:35.352Z,8.15
2022-11-15T01:32:56.393Z,8.47
2022-11-15T01:35:17.802Z,6.93
2022-11-15T01:37:39.105Z,6.79
2022-11-15T01:40:00.253Z,8.49
2022-11-15T01:42:22.677Z,4.89
2022-11-15T01:44:46.437Z,8.01
2022-11-15T01:47:12.492Z,8.57
2022-11-15T01:49:37.269Z,8.52
2022-11-15T01:51:59.543Z,8.55
2022-11-15T01:54:23.350Z,6.40
2022-11-15T01:56:50.342Z,8.38
2022-11-15T01:59:13.910Z,8.12
2022-11-15T02:01:35.972Z,8.11
2022-11-15T02:04:01.623Z,8.16
2022-11-15T02:06:23.893Z,8.38
2022-11-15T02:08:46.069Z,8.42
2022-11-15T02:11:10.018Z,8.53
2022-11-15T02:13:32.018Z,7.64
2022-11-15T02:16:11.082Z,8.56
2022-11-15T02:18:37.688Z,8.45
2022-11-15T02:24:59.773Z,8.76
2022-11-15T02:27:44.205Z,8.12
2022-11-15T02:30:26.484Z,8.61
2022-11-15T02:32:53.184Z,8.56
2022-11-15T02:35:21.494Z,6.43
2022-11-15T02:37:49.843Z,8.43
2022-11-15T02:40:19.453Z,8.41
2022-11-15T02:43:08.550Z,7.02
2022-11-15T02:45:36.014Z,7.10
2022-11-15T02:48:01.105Z,8.31
2022-11-15T02:50:26.565Z,8.56
2022-11-15T02:52:50.463Z,8.62
2022-11-15T02:55:30.845Z,8.78
2022-11-15T02:58:00.270Z,5.38
2022-11-15T03:00:23.055Z,8.84
2022-11-15T03:02:59.117Z,8.23
2022-11-15T03:05:28.147Z,8.98
2022-11-15T03:08:01.861Z,8.99
2022-11-15T03:10:29.267Z,7.89
2022-11-15T03:12:57.860Z,9.05
2022-11-15T03:15:23.808Z,9.03
2022-11-15T03:17:53.571Z,9.05
2022-11-15T03:20:17.896Z,8.34
2022-11-15T03:22:44.085Z,6.95
2022-11-15T03:25:10.927Z,8.15
2022-11-15T03:27:38.077Z,8.97
2022-11-15T03:30:02.885Z,8.92
2022-11-15T03:32:27.870Z,8.91
2022-11-15T03:34:54.291Z,8.90
2022-11-15T03:37:18.243Z,8.92
2022-11-15T03:39:40.052Z,4.09
2022-11-15T03:42:14.542Z,6.14
2022-11-15T03:44:44.303Z,8.88
2022-11-15T03:47:11.475Z,8.87
2022-11-15T03:49:36.452Z,8.63
2022-11-15T03:52:01.022Z,8.02
2022-11-15T03:54:22.336Z,6.05
2022-11-15T03:56:43.655Z,6.52
2022-11-15T03:59:04.937Z,8.51
2022-11-15T04:01:26.425Z,8.93
2022-11-15T04:03:48.104Z,8.88
2022-11-15T04:06:09.538Z,8.91
2022-11-15T04:08:32.539Z,8.91
2022-11-15T04:10:54.160Z,8.43
2022-11-15T04:13:15.598Z,7.47
2022-11-15T04:15:37.101Z,8.90
2022-11-15T04:17:59.219Z,8.31
2022-11-15T04:20:40.720Z,8.86
2022-11-15T04:23:21.398Z,8.89
2022-11-15T04:25:45.344Z,8.98
2022-11-15T04:28:07.023Z,9.01
2022-11-15T04:30:28.437Z,9.05
2022-11-15T04:32:49.671Z,9.07
2022-11-15T04:35:11.372Z,9.09
2022-11-15T04:37:31.646Z,9.08
2022-11-15T04:39:52.882Z,9.06
2022-11-15T04:42:15.453Z,7.89
2022-11-15T04:44:37.288Z,8.98
2022-11-15T04:46:58.795Z,7.91
2022-11-15T04:49:20.369Z,9.10
2022-11-15T04:51:41.567Z,8.65
2022-11-15T04:54:02.776Z,8.61
2022-11-15T04:56:23.963Z,9.06
2022-11-15T04:58:46.568Z,8.69
2022-11-15T05:01:09.671Z,9.12
2022-11-15T05:03:48.847Z,9.14
2022-11-15T05:06:10.593Z,9.10
2022-11-15T05:08:31.856Z,9.06
2022-11-15T05:10:53.015Z,7.97
2022-11-15T05:13:14.325Z,9.05
2022-11-15T05:15:36.885Z,8.95
2022-11-15T05:18:00.963Z,8.99
2022-11-15T05:20:22.403Z,8.95
2022-11-15T05:22:43.742Z,8.91
2022-11-15T05:25:05.763Z,8.59
2022-11-15T05:27:27.105Z,7.27
2022-11-15T05:29:48.577Z,7.50
2022-11-15T05:32:11.923Z,8.61
2022-11-15T05:34:33.865Z,8.18
2022-11-15T05:36:55.769Z,8.57
2022-11-15T05:39:17.131Z,8.68
2022-11-15T05:41:43.950Z,7.69
2022-11-15T05:44:10.127Z,4.20
2022-11-15T05:46:31.677Z,8.44
2022-11-15T05:48:56.921Z,8.85
2022-11-15T05:51:21.593Z,8.85
2022-11-15T05:53:43.689Z,8.81
2022-11-15T05:56:06.695Z,8.81
2022-11-15T05:58:28.269Z,6.84
2022-11-15T06:00:50.056Z,8.31
2022-11-15T06:03:11.650Z,8.61
2022-11-15T06:05:34.644Z,8.59
2022-11-15T06:07:59.902Z,8.54
2022-11-15T06:10:20.954Z,8.47
2022-11-15T06:12:42.387Z,7.68
2022-11-15T06:15:03.944Z,8.47
2022-11-15T06:17:25.739Z,8.38
2022-11-15T06:19:46.962Z,8.34
2022-11-15T06:22:10.444Z,8.33
2022-11-15T06:24:31.990Z,7.90
2022-11-15T06:26:53.612Z,8.36
2022-11-15T06:29:15.226Z,8.36
2022-11-15T06:31:36.571Z,8.41
2022-11-15T06:33:58.174Z,8.44
2022-11-15T06:36:19.704Z,7.19
2022-11-15T06:38:42.504Z,8.50
2022-11-15T06:41:04.439Z,8.48
2022-11-15T06:43:25.697Z,8.51
2022-11-15T06:45:47.017Z,8.51
2022-11-15T06:48:08.533Z,8.47
2022-11-15T06:50:29.855Z,8.44
2022-11-15T06:52:51.317Z,8.46
2022-11-15T06:55:14.156Z,8.48
2022-11-15T06:57:35.604Z,8.46
2022-11-15T06:59:56.821Z,8.46
2022-11-15T07:02:18.128Z,8.46
2022-11-15T07:04:39.548Z,8.51
2022-11-15T07:07:00.944Z,8.55
2022-11-15T07:09:22.693Z,4.88
2022-11-15T07:11:45.529Z,7.32
2022-11-15T07:14:06.880Z,8.61
2022-11-15T07:16:28.146Z,8.69
2022-11-15T07:18:49.376Z,8.70
2022-11-15T07:21:13.651Z,8.59
2022-11-15T07:23:35.470Z,8.35
2022-11-15T07:25:59.190Z,8.55
2022-11-15T07:28:22.388Z,8.64
2022-11-15T07:30:45.360Z,8.67
2022-11-15T07:33:07.195Z,8.62
2022-11-15T07:35:30.227Z,8.75
2022-11-15T07:37:57.018Z,8.82
2022-11-15T07:40:18.410Z,8.87
2022-11-15T07:42:58.121Z,8.50
2022-11-15T07:45:21.194Z,9.02
2022-11-15T07:47:42.632Z,9.09
2022-11-15T07:50:04.111Z,7.21
2022-11-15T07:52:25.546Z,8.98
2022-11-15T07:54:46.749Z,9.08
2022-11-15T07:57:10.157Z,9.16
2022-11-15T07:59:31.629Z,9.15
2022-11-15T08:01:54.524Z,9.09
2022-11-15T08:04:16.622Z,8.45
2022-11-15T08:06:38.168Z,8.98
2022-11-15T08:08:59.626Z,8.74
2022-11-15T08:11:21.048Z,8.74
2022-11-15T08:13:42.260Z,9.25
2022-11-15T08:16:06.284Z,8.87
2022-11-15T08:18:29.004Z,9.47
2022-11-15T08:20:50.465Z,9.91
2022-11-15T08:23:13.813Z,9.92
2022-11-15T08:25:36.063Z,7.87
2022-11-15T08:27:58.917Z,10.40
2022-11-15T08:30:20.800Z,10.57
2022-11-15T08:32:42.361Z,9.99
2022-11-15T08:35:05.736Z,6.03
2022-11-15T08:37:27.158Z,10.80
2022-11-15T08:39:48.421Z,10.92
2022-11-15T08:42:09.537Z,9.15
2022-11-15T08:44:30.789Z,9.59
2022-11-15T08:46:52.168Z,11.25
2022-11-15T08:49:13.764Z,5.29
2022-11-15T08:51:36.607Z,9.13
2022-11-15T08:53:58.005Z,9.75
2022-11-15T08:56:19.224Z,11.36
2022-11-15T08:58:40.802Z,11.58
2022-11-15T09:01:02.052Z,11.69
2022-11-15T09:03:23.424Z,11.77
2022-11-15T09:05:44.632Z,7.76
2022-11-15T09:08:25.615Z,11.14
2022-11-15T09:10:48.841Z,12.17
2022-11-15T09:13:10.061Z,11.90
2022-11-15T09:15:31.211Z,12.49
2022-11-15T09:17:52.381Z,12.60
2022-11-15T09:20:13.879Z,12.84
2022-11-15T09:22:35.505Z,12.89
2022-11-15T09:24:58.263Z,12.95
2022-11-15T09:27:19.612Z,12.96
2022-11-15T09:29:40.934Z,12.72
2022-11-15T09:32:02.297Z,13.10
2022-11-15T09:34:23.905Z,13.06
2022-11-15T09:36:45.457Z,12.86
2022-11-15T09:39:06.739Z,12.76
2022-11-15T09:41:53.069Z,13.13
2022-11-15T09:44:31.644Z,13.15
2022-11-15T09:47:03.071Z,13.19
2022-11-15T09:49:35.480Z,12.97
2022-11-15T09:51:53.041Z,13.21
2022-11-15T09:56:29.349Z,13.27
2022-11-15T09:58:40.466Z,13.32
2022-11-15T10:00:49.612Z,11.63
2022-11-15T10:03:05.175Z,13.38
2022-11-15T10:05:12.364Z,11.07
2022-11-15T10:07:20.243Z,13.48
2022-11-15T10:09:28.497Z,13.54
2022-11-15T10:11:38.962Z,13.60
2022-11-15T10:13:47.223Z,13.58
2022-11-15T10:15:51.427Z,12.78
2022-11-15T10:18:11.095Z,13.55
2022-11-15T10:20:19.864Z,13.61
2022-11-15T10:22:40.713Z,13.62
2022-11-15T10:24:45.171Z,13.13
2022-11-15T10:26:49.091Z,13.37
2022-11-15T10:28:53.363Z,10.79
2022-11-15T10:30:58.117Z,13.47
2022-11-15T10:33:32.017Z,13.43
2022-11-15T10:35:35.095Z,13.34
2022-11-15T10:37:38.121Z,13.31
2022-11-15T10:39:41.007Z,13.37
2022-11-15T10:41:44.511Z,13.38
2022-11-15T10:44:03.241Z,13.36
2022-11-15T10:46:44.937Z,13.31
2022-11-15T10:48:46.105Z,12.69
2022-11-15T10:50:50.738Z,13.32
2022-11-15T10:52:53.851Z,13.26
2022-11-15T10:55:01.384Z,13.18
2022-11-15T10:57:11.483Z,13.21
2022-11-15T10:59:28.948Z,13.15
2022-11-15T11:01:33.312Z,13.20
2022-11-15T11:03:38.603Z,13.26
2022-11-15T11:05:43.259Z,13.19
2022-11-15T11:07:58.777Z,12.46
2022-11-15T11:10:13.324Z,13.20
2022-11-15T11:12:32.405Z,12.13
2022-11-15T11:14:37.803Z,13.22
2022-11-15T11:16:50.648Z,13.26
2022-11-15T11:19:04.304Z,13.34
2022-11-15T11:21:13.609Z,13.36
2022-11-15T11:23:30.896Z,13.38
2022-11-15T11:25:38.246Z,13.51
2022-11-15T11:27:49.850Z,13.56
2022-11-15T11:30:04.730Z,13.64
2022-11-15T11:32:34.189Z,13.64
2022-11-15T11:34:50.620Z,13.61
2022-11-15T11:37:05.652Z,11.65
2022-11-15T11:39:26.339Z,13.75
2022-11-15T11:41:51.610Z,13.83
2022-11-15T11:44:05.808Z,13.89
2022-11-15T11:46:23.741Z,13.86
2022-11-15T11:48:42.229Z,13.22
2022-11-15T11:50:47.613Z,13.83
2022-11-15T11:53:03.591Z,13.84
2022-11-15T11:55:16.887Z,13.82
2022-11-15T11:57:30.098Z,13.38
2022-11-15T11:59:39.532Z,11.51
2022-11-15T12:01:45.269Z,12.30
2022-11-15T12:03:53.125Z,13.82
2022-11-15T12:05:58.690Z,13.76
2022-11-15T12:08:15.065Z,13.85
2022-11-15T12:10:24.670Z,13.96
2022-11-15T12:12:37.182Z,13.57
2022-11-15T12:14:44.851Z,13.97
2022-11-15T12:16:47.761Z,9.22
2022-11-15T12:18:55.128Z,14.02
2022-11-15T12:21:01.690Z,14.06
2022-11-15T12:23:09.164Z,13.33
2022-11-15T12:25:20.839Z,13.51
2022-11-15T12:27:33.285Z,14.26
2022-11-15T12:29:39.888Z,14.33
2022-11-15T12:31:47.364Z,14.32
2022-11-15T12:33:57.003Z,14.47
2022-11-15T12:36:02.262Z,14.50
2022-11-15T12:38:06.077Z,14.56
2022-11-15T12:40:34.593Z,14.13
2022-11-15T12:42:42.607Z,14.36
2022-11-15T12:45:01.144Z,13.78
2022-11-15T12:47:23.539Z,14.24
2022-11-15T12:49:48.128Z,14.33
2022-11-15T12:52:07.994Z,13.98
2022-11-15T12:54:49.700Z,14.39
2022-11-15T12:57:29.686Z,14.37
2022-11-15T12:59:51.015Z,14.28
2022-11-15T13:02:00.692Z,13.18
2022-11-15T13:04:27.166Z,14.16
2022-11-15T13:06:40.959Z,14.19
2022-11-15T13:08:50.641Z,14.22
2022-11-15T13:10:53.573Z,14.22
2022-11-15T13:12:58.894Z,14.25
2022-11-15T13:15:02.916Z,14.16
2022-11-15T13:17:36.014Z,14.12
2022-11-15T13:19:39.114Z,14.10
2022-11-15T13:22:20.374Z,13.78
2022-11-15T13:24:23.392Z,14.17
2022-11-15T13:26:26.674Z,14.13
2022-11-15T13:28:36.176Z,14.15
2022-11-15T13:30:39.874Z,11.01
2022-11-15T13:32:42.832Z,14.19
2022-11-15T13:34:52.719Z,14.23
2022-11-15T13:36:58.221Z,14.23
2022-11-15T13:39:03.952Z,14.21
2022-11-15T13:41:19.625Z,13.67
2022-11-15T13:43:30.879Z,14.18
2022-11-15T13:45:33.847Z,14.17
2022-11-15T13:47:36.802Z,14.20
2022-11-15T13:49:39.695Z,14.21
2022-11-15T13:51:48.680Z,14.21
2022-11-15T13:53:57.082Z,14.20
2022-11-15T13:56:00.719Z,14.23
2022-11-15T13:58:07.275Z,14.18
2022-11-15T14:00:28.461Z,14.10
2022-11-15T14:02:34.316Z,14.05
2022-11-15T14:04:41.548Z,14.05
2022-11-15T14:06:51.067Z,12.66
2022-11-15T14:09:25.105Z,14.01
2022-11-15T14:11:28.379Z,13.87
2022-11-15T14:13:33.651Z,9.55
2022-11-15T14:15:38.198Z,13.92
2022-11-15T14:17:45.654Z,13.89
2022-11-15T14:19:53.782Z,13.84
2022-11-15T14:22:30.461Z,13.79
2022-11-15T14:24:34.728Z,13.75
2022-11-15T14:26:37.668Z,13.65
2022-11-15T14:28:40.612Z,13.61
2022-11-15T14:30:47.247Z,13.56
2022-11-15T14:32:51.802Z,13.47
2022-11-15T14:34:58.141Z,12.21
2022-11-15T14:37:01.081Z,13.45
2022-11-15T14:39:06.194Z,13.40
2022-11-15T14:41:19.104Z,13.41
2022-11-15T14:43:22.017Z,13.34
2022-11-15T14:45:24.888Z,13.43
2022-11-15T14:47:27.843Z,13.51
2022-11-15T14:49:30.693Z,13.48
2022-11-15T14:51:34.204Z,13.44
2022-11-15T14:53:37.090Z,13.48
2022-11-15T14:55:40.246Z,13.51
2022-11-15T14:57:44.559Z,13.50
2022-11-15T14:59:47.486Z,13.49
2022-11-15T15:01:50.316Z,13.46
2022-11-15T15:03:55.078Z,12.82
2022-11-15T15:05:57.929Z,13.45
2022-11-15T15:08:01.148Z,13.45
2022-11-15T15:10:37.840Z,13.40
2022-11-15T15:12:27.124Z,13.33
2022-11-15T15:14:31.401Z,13.36
2022-11-15T15:16:34.340Z,13.31
2022-11-15T15:18:37.204Z,13.29
2022-11-15T15:20:42.368Z,12.01
2022-11-15T15:22:45.819Z,13.24
2022-11-15T15:24:48.701Z,13.23
2022-11-15T15:26:52.904Z,13.19
2022-11-15T15:28:55.824Z,13.17
2022-11-15T15:31:00.023Z,13.16
2022-11-15T15:33:02.920Z,13.75
2022-11-15T15:35:06.526Z,15.05
2022-11-15T15:37:27.340Z,16.02
2022-11-15T15:39:30.224Z,16.76
2022-11-15T15:41:33.117Z,17.02
2022-11-15T15:43:36.069Z,16.24
2022-11-15T15:45:40.292Z,15.43
2022-11-15T15:47:45.446Z,14.85
2022-11-15T15:49:48.598Z,12.31
2022-11-15T15:51:51.602Z,14.12
2022-11-15T15:53:58.081Z,13.95
2022-11-15T15:56:01.106Z,13.30
2022-11-15T15:58:04.029Z,13.62
2022-11-15T16:00:08.210Z,13.55
2022-11-15T16:02:15.521Z,12.54
2022-11-15T16:04:19.829Z,13.33
2022-11-15T16:06:36.524Z,10.52
2022-11-15T16:09:00.495Z,13.08
2022-11-15T16:11:04.619Z,12.97
2022-11-15T16:13:07.533Z,12.96
2022-11-15T16:15:11.198Z,11.10
2022-11-15T16:17:20.649Z,10.07
2022-11-15T16:19:24.869Z,12.64
2022-11-15T16:21:27.756Z,11.78
2022-11-15T16:23:30.636Z,11.84
2022-11-15T16:25:37.096Z,9.23
2022-11-15T16:27:45.821Z,3.72
2022-11-15T16:29:49.349Z,10.92
2022-11-15T16:31:52.312Z,11.98
2022-11-15T16:33:55.245Z,12.15
2022-11-15T16:35:59.547Z,12.09
2022-11-15T16:38:02.476Z,12.13
2022-11-15T16:40:06.305Z,11.64
2022-11-15T16:42:09.221Z,11.63
2022-11-15T16:44:12.071Z,11.90
2022-11-15T16:46:18.612Z,12.07
2022-11-15T16:48:25.285Z,12.14
2022-11-15T16:50:30.771Z,12.06
2022-11-15T16:52:35.084Z,12.21
2022-11-15T16:54:38.152Z,9.50
2022-11-15T16:56:41.931Z,10.36
2022-11-15T16:58:44.883Z,12.24
2022-11-15T17:00:52.581Z,9.63
2022-11-15T17:02:56.091Z,12.24
2022-11-15T17:04:59.004Z,10.48
2022-11-15T17:07:01.994Z,9.38
2022-11-15T17:09:06.456Z,6.72
2022-11-15T17:11:10.375Z,9.84
2022-11-15T17:13:13.883Z,10.86
2022-11-15T17:15:17.544Z,12.19
2022-11-15T17:17:20.504Z,12.20
2022-11-15T17:19:23.418Z,12.23
2022-11-15T17:21:32.581Z,12.24
2022-11-15T17:23:36.838Z,12.26
2022-11-15T17:25:41.440Z,12.30
2022-11-15T17:27:44.352Z,12.29
2022-11-15T17:29:47.260Z,11.12
2022-11-15T17:31:50.203Z,12.29
2022-11-15T17:33:53.127Z,12.28
2022-11-15T17:35:59.597Z,12.27
2022-11-15T17:38:02.529Z,12.25
2022-11-15T17:40:06.253Z,12.20
2022-11-15T17:42:10.793Z,12.18
2022-11-15T17:44:14.256Z,11.73
2022-11-15T17:46:19.175Z,12.17
2022-11-15T17:48:22.187Z,11.52
2022-11-15T17:50:25.158Z,12.16
2022-11-15T17:52:28.025Z,12.18
2022-11-15T17:54:30.984Z,9.74
2022-11-15T17:56:33.928Z,6.40
2022-11-15T17:58:38.654Z,12.14
2022-11-15T18:00:41.671Z,12.18
2022-11-15T18:02:44.670Z,9.73
2022-11-15T18:04:47.579Z,12.08
2022-11-15T18:06:50.555Z,11.76
2022-11-15T18:08:56.037Z,11.82
2022-11-15T18:11:07.770Z,10.60
2022-11-15T18:13:10.672Z,11.93
2022-11-15T18:15:15.066Z,11.99
2022-11-15T18:17:19.075Z,12.01
2022-11-15T18:19:22.058Z,11.91
2022-11-15T18:21:26.662Z,10.07
2022-11-15T18:23:29.587Z,11.67
2022-11-15T18:25:32.520Z,11.79
2022-11-15T18:27:35.514Z,7.66
2022-11-15T18:29:38.644Z,5.96
2022-11-15T18:31:47.572Z,10.41
2022-11-15T18:33:52.306Z,11.34
2022-11-15T18:36:03.272Z,12.06
2022-11-15T18:38:07.218Z,12.08
2022-11-15T18:40:10.961Z,10.15
2022-11-15T18:42:13.865Z,12.05
2022-11-15T18:44:17.349Z,12.03
2022-11-15T18:46:22.254Z,12.02
2022-11-15T18:48:26.553Z,12.02
2022-11-15T18:50:29.454Z,11.14
2022-11-15T18:52:32.535Z,11.97
2022-11-15T18:54:35.434Z,11.98
2022-11-15T18:56:39.087Z,11.94
2022-11-15T18:58:43.841Z,10.94
2022-11-15T19:00:46.735Z,11.71
2022-11-15T19:02:49.615Z,11.63
2022-11-15T19:04:53.894Z,11.76
2022-11-15T19:06:56.818Z,8.16
2022-11-15T19:09:01.678Z,11.80
2022-11-15T19:11:06.453Z,9.76
2022-11-15T19:13:09.318Z,9.62
2022-11-15T19:15:12.722Z,11.80
2022-11-15T19:17:15.719Z,11.76
2022-11-15T19:19:21.276Z,11.75
2022-11-15T19:21:26.714Z,10.08
2022-11-15T19:23:30.357Z,7.18
2022-11-15T19:25:34.501Z,11.71
2022-11-15T19:27:38.327Z,10.98
2022-11-15T19:29:41.877Z,11.06
2022-11-15T19:31:44.844Z,11.31
2022-11-15T19:33:48.242Z,10.09
2022-11-15T19:35:51.143Z,11.40
2022-11-15T19:37:55.384Z,11.48
2022-11-15T19:39:58.295Z,8.73
2022-11-15T19:42:01.218Z,7.10
2022-11-15T19:44:04.460Z,9.62
2022-11-15T19:46:08.974Z,11.57
2022-11-15T19:48:11.908Z,11.58
2022-11-15T19:50:14.949Z,11.57
2022-11-15T19:52:17.878Z,10.64
2022-11-15T19:54:22.157Z,8.57
2022-11-15T19:56:25.841Z,11.34
2022-11-15T19:58:29.830Z,11.26
2022-11-15T20:00:32.714Z,11.26
2022-11-15T20:02:35.591Z,11.16
2022-11-15T20:04:38.513Z,10.67
2022-11-15T20:06:43.116Z,11.12
2022-11-15T20:08:47.812Z,9.81
2022-11-15T20:10:52.074Z,11.17
2022-11-15T20:12:54.975Z,11.27
2022-11-15T20:14:57.845Z,11.29
2022-11-15T20:17:00.902Z,10.06
2022-11-15T20:19:03.800Z,8.85
2022-11-15T20:21:08.076Z,10.46
2022-11-15T20:23:11.302Z,6.81
2022-11-15T20:25:15.409Z,11.24
2022-11-15T20:27:19.917Z,11.18
2022-11-15T20:29:23.437Z,4.68
2022-11-15T20:31:26.379Z,8.85
2022-11-15T20:33:29.664Z,11.21
2022-11-15T20:35:32.515Z,11.13
2022-11-15T20:37:36.178Z,10.69
2022-11-15T20:39:39.355Z,10.92
2022-11-15T20:41:42.245Z,11.14
2022-11-15T20:43:46.509Z,11.26
2022-11-15T20:45:50.697Z,8.60
2022-11-15T20:47:56.175Z,11.23
2022-11-15T20:50:09.896Z,9.27
2022-11-15T20:52:23.139Z,10.92
2022-11-15T20:54:26.097Z,10.86
2022-11-15T20:56:29.040Z,9.75
2022-11-15T20:58:32.576Z,11.04
2022-11-15T21:00:37.825Z,8.11
2022-11-15T21:02:40.765Z,10.95
2022-11-15T21:04:43.699Z,10.06
2022-11-15T21:06:48.834Z,9.19
2022-11-15T21:09:10.755Z,10.49
2022-11-15T21:11:31.111Z,10.12
2022-11-15T21:13:34.087Z,8.76
2022-11-15T21:15:38.343Z,5.10
2022-11-15T21:17:41.336Z,10.46
2022-11-15T21:19:44.577Z,8.82
2022-11-15T21:21:47.790Z,10.62
2022-11-15T21:23:50.664Z,10.56
2022-11-15T21:25:53.760Z,10.51
2022-11-15T21:27:56.605Z,8.97
2022-11-15T21:29:59.512Z,8.52
2022-11-15T21:32:06.970Z,10.62
2022-11-15T21:34:10.217Z,10.71
2022-11-15T21:36:13.132Z,10.67
2022-11-15T21:38:16.040Z,10.66
2022-11-15T21:40:19.000Z,10.55
2022-11-15T21:42:22.268Z,9.88
2022-11-15T21:44:25.241Z,9.88
2022-11-15T21:46:29.249Z,10.55
2022-11-15T21:48:35.956Z,10.68
2022-11-15T21:50:39.023Z,10.71
2022-11-15T21:52:41.917Z,10.67
2022-11-15T21:54:44.813Z,6.23
2022-11-15T21:56:47.849Z,10.75
2022-11-15T21:58:50.714Z,10.61
2022-11-15T22:01:13.390Z,10.40
2022-11-15T22:03:16.330Z,10.08
2022-11-15T22:05:20.677Z,10.58
2022-11-15T22:07:23.590Z,8.72
2022-11-15T22:09:26.574Z,8.21
2022-11-15T22:11:29.719Z,10.50
2022-11-15T22:13:32.773Z,8.96
2022-11-15T22:15:35.736Z,10.34
2022-11-15T22:17:56.874Z,10.07
2022-11-15T22:20:07.756Z,8.37
2022-11-15T22:22:24.478Z,10.21
2022-11-15T22:24:27.570Z,10.32
2022-11-15T22:26:30.650Z,2.01
2022-11-15T22:28:34.218Z,10.08
2022-11-15T22:30:37.563Z,8.44
2022-11-15T22:32:40.596Z,10.29
2022-11-15T22:34:43.708Z,10.27
2022-11-15T22:37:18.399Z,10.30
2022-11-15T22:39:11.353Z,10.32
2022-11-15T22:41:14.407Z,10.25
2022-11-15T22:43:21.033Z,10.46
2022-11-15T22:45:24.108Z,10.44
2022-11-15T22:47:27.659Z,8.66
2022-11-15T22:49:30.723Z,10.47
2022-11-15T22:51:33.838Z,9.71
2022-11-15T22:53:36.872Z,7.67
2022-11-15T22:55:41.803Z,10.34
2022-11-15T22:57:45.147Z,10.54
2022-11-15T22:59:48.238Z,10.60
2022-11-15T23:01:51.893Z,-0.27
2022-11-15T23:03:55.302Z,10.61
2022-11-15T23:06:02.838Z,10.57
2022-11-15T23:08:06.288Z,10.37
2022-11-15T23:10:27.633Z,9.98
2022-11-15T23:12:49.633Z,10.34
2022-11-15T23:14:52.634Z,9.82
2022-11-15T23:16:54.656Z,-0.15
2022-11-15T23:18:59.201Z,10.58
2022-11-15T23:21:09.325Z,10.58
2022-11-15T23:23:11.833Z,4.00
2022-11-15T23:25:14.936Z,8.91
2022-11-15T23:27:20.087Z,10.57
2022-11-15T23:29:26.350Z,10.59
2022-11-15T23:31:46.826Z,8.43
2022-11-15T23:33:57.633Z,10.41
2022-11-15T23:36:00.726Z,10.40
2022-11-15T23:38:03.732Z,10.39
2022-11-15T23:40:08.189Z,10.35
2022-11-15T23:42:20.142Z,7.15
2022-11-15T23:44:25.841Z,10.32
2022-11-15T23:46:29.118Z,7.67
2022-11-15T23:48:32.653Z,10.28
2022-11-15T23:50:36.220Z,10.24
2022-11-15T23:52:39.253Z,10.19
2022-11-15T23:54:42.584Z,10.16
2022-11-15T23:56:45.592Z,7.25
2022-11-15T23:58:48.920Z,10.14
